sensor_id;sensor_type;location;lat;lon;timestamp;pressure;altitude;pressure_sealevel;temperature;humidity
45864;BME280;31579;52.354;16.974;2023-04-10T00:00:00;472.1;;;-146.1;100.0
45864;BME280;31579;52.354;16.974;2023-04-10T00:01:04;467.5;;;-146.1;100.0
45864;BME280;31579;52.354;16.974;2023-04-10T00:02:07;451.4;;;-146.1;100.0
45864;BME280;31579;52.354;16.974;2023-04-10T00:03:11;441.5;;;-146.1;100.0
45864;BME280;31579;52.354;16.974;2023-04-10T00:04:15;431.3;;;-146.1;100.0
45864;BME280;31579;52.354;16.974;2023-04-10T00:05:20;420.7;;;-146.1;100.0
45864;BME280;31579;52.354;16.974;2023-04-10T00:06:23;410.2;;;-146.1;100.0
45864;BME280;31579;52.354;16.974;2023-04-10T00:07:27;399.6;;;-146.1;100.0
45864;BME280;31579;52.354;16.974;2023-04-10T00:08:31;389.1;;;-146.1;100.0
45864;BME280;31579;52.354;16.974;2023-04-10T00:09:36;379.3;;;-146.1;100.0
45864;BME280;31579;52.354;16.974;2023-04-10T00:10:39;370.0;;;-146.1;100.0
45864;BME280;31579;52.354;16.974;2023-04-10T00:11:44;364.7;;;-146.1;100.0
45864;BME280;31579;52.354;16.974;2023-04-10T00:12:48;357.2;;;-146.1;100.0
45864;BME280;31579;52.354;16.974;2023-04-10T00:13:54;354.7;;;-146.1;100.0
45864;BME280;31579;52.354;16.974;2023-04-10T00:14:57;426.2;;;-146.1;100.0
45864;BME280;31579;52.354;16.974;2023-04-10T00:15:58;466.0;;;-146.1;100.0
45864;BME280;31579;52.354;16.974;2023-04-10T00:17:00;473.4;;;-146.1;100.0
45864;BME280;31579;52.354;16.974;2023-04-10T00:18:05;451.9;;;-146.1;100.0
45864;BME280;31579;52.354;16.974;2023-04-10T00:19:09;440.0;;;-146.1;100.0
45864;BME280;31579;52.354;16.974;2023-04-10T00:20:13;428.8;;;-146.1;100.0
45864;BME280;31579;52.354;16.974;2023-04-10T00:21:18;416.4;;;-146.1;100.0
45864;BME280;31579;52.354;16.974;2023-04-10T00:22:21;403.4;;;-146.1;100.0
45864;BME280;31579;52.354;16.974;2023-04-10T00:23:25;392.3;;;-146.1;100.0
45864;BME280;31579;52.354;16.974;2023-04-10T00:24:29;381.2;;;-146.1;100.0
45864;BME280;31579;52.354;16.974;2023-04-10T00:25:33;371.6;;;-146.1;100.0
45864;BME280;31579;52.354;16.974;2023-04-10T00:26:37;363.3;;;-146.1;100.0
45864;BME280;31579;52.354;16.974;2023-04-10T00:27:41;356.6;;;-146.1;100.0
45864;BME280;31579;52.354;16.974;2023-04-10T00:28:45;351.0;;;-146.1;100.0
45864;BME280;31579;52.354;16.974;2023-04-10T00:29:49;344.9;;;-146.1;100.0
45864;BME280;31579;52.354;16.974;2023-04-10T00:30:53;340.8;;;-146.1;100.0
45864;BME280;31579;52.354;16.974;2023-04-10T00:31:57;422.7;;;-146.1;100.0
45864;BME280;31579;52.354;16.974;2023-04-10T00:32:58;467.4;;;-146.1;100.0
45864;BME280;31579;52.354;16.974;2023-04-10T00:34:00;475.7;;;-146.1;100.0
45864;BME280;31579;52.354;16.974;2023-04-10T00:35:06;455.3;;;-146.1;100.0
45864;BME280;31579;52.354;16.974;2023-04-10T00:36:10;446.2;;;-146.1;100.0
45864;BME280;31579;52.354;16.974;2023-04-10T00:37:14;436.2;;;-146.1;100.0
45864;BME280;31579;52.354;16.974;2023-04-10T00:38:18;426.1;;;-146.1;100.0
45864;BME280;31579;52.354;16.974;2023-04-10T00:39:22;416.3;;;-146.1;100.0
45864;BME280;31579;52.354;16.974;2023-04-10T00:40:27;406.5;;;-146.1;100.0
45864;BME280;31579;52.354;16.974;2023-04-10T00:41:30;396.9;;;-146.1;100.0
45864;BME280;31579;52.354;16.974;2023-04-10T00:42:34;387.5;;;-146.1;100.0
45864;BME280;31579;52.354;16.974;2023-04-10T00:43:38;378.1;;;-146.1;100.0
45864;BME280;31579;52.354;16.974;2023-04-10T00:44:43;370.0;;;-146.1;100.0
45864;BME280;31579;52.354;16.974;2023-04-10T00:45:46;363.1;;;-146.1;100.0
45864;BME280;31579;52.354;16.974;2023-04-10T00:46:50;357.0;;;-146.1;100.0
45864;BME280;31579;52.354;16.974;2023-04-10T00:47:55;351.7;;;-146.1;100.0
45864;BME280;31579;52.354;16.974;2023-04-10T00:48:57;460.9;;;-146.1;100.0
45864;BME280;31579;52.354;16.974;2023-04-10T00:49:59;458.0;;;-146.1;100.0
45864;BME280;31579;52.354;16.974;2023-04-10T00:51:04;432.7;;;-146.1;100.0
45864;BME280;31579;52.354;16.974;2023-04-10T00:52:08;419.4;;;-146.1;100.0
45864;BME280;31579;52.354;16.974;2023-04-10T00:53:11;406.1;;;-146.1;100.0
45864;BME280;31579;52.354;16.974;2023-04-10T00:54:15;392.8;;;-146.1;100.0
45864;BME280;31579;52.354;16.974;2023-04-10T00:55:19;379.0;;;-146.1;100.0
45864;BME280;31579;52.354;16.974;2023-04-10T00:56:23;365.5;;;-146.1;100.0
45864;BME280;31579;52.354;16.974;2023-04-10T00:57:27;354.0;;;-146.1;100.0
45864;BME280;31579;52.354;16.974;2023-04-10T00:58:31;343.9;;;-146.1;100.0
45864;BME280;31579;52.354;16.974;2023-04-10T00:59:36;333.2;;;-146.1;100.0
45864;BME280;31579;52.354;16.974;2023-04-10T01:00:40;325.5;;;-146.1;100.0
45864;BME280;31579;52.354;16.974;2023-04-10T01:01:43;318.8;;;-146.1;100.0
45864;BME280;31579;52.354;16.974;2023-04-10T01:02:47;312.9;;;-146.1;100.0
45864;BME280;31579;52.354;16.974;2023-04-10T01:03:51;307.5;;;-146.1;100.0
45864;BME280;31579;52.354;16.974;2023-04-10T01:04:55;302.9;;;-146.1;100.0
45864;BME280;31579;52.354;16.974;2023-04-10T01:07:09;389.9;;;-146.1;100.0
45864;BME280;31579;52.354;16.974;2023-04-10T01:08:11;367.7;;;-146.1;100.0
45864;BME280;31579;52.354;16.974;2023-04-10T01:10:17;336.2;;;-146.1;100.0
45864;BME280;31579;52.354;16.974;2023-04-10T01:16:25;300.5;;;-146.1;100.0
45864;BME280;31579;52.354;16.974;2023-04-10T01:16:44;295.7;;;-146.1;100.0
45864;BME280;31579;52.354;16.974;2023-04-10T01:18:52;286.5;;;-146.1;100.0
45864;BME280;31579;52.354;16.974;2023-04-10T01:20:58;269.9;;;-146.1;100.0
45864;BME280;31579;52.354;16.974;2023-04-10T01:22:01;274.8;;;-146.1;100.0
45864;BME280;31579;52.354;16.974;2023-04-10T01:26:20;262.0;;;-146.1;100.0
45864;BME280;31579;52.354;16.974;2023-04-10T01:29:29;251.3;;;-146.1;100.0
45864;BME280;31579;52.354;16.974;2023-04-10T01:30:34;248.1;;;-146.1;100.0
45864;BME280;31579;52.354;16.974;2023-04-10T01:31:41;245.3;;;-146.1;100.0
45864;BME280;31579;52.354;16.974;2023-04-10T01:32:41;243.2;;;-146.1;100.0
45864;BME280;31579;52.354;16.974;2023-04-10T01:33:46;241.2;;;-146.1;100.0
45864;BME280;31579;52.354;16.974;2023-04-10T01:34:50;485.0;;;-146.1;100.0
45864;BME280;31579;52.354;16.974;2023-04-10T01:35:54;468.8;;;-146.1;100.0
45864;BME280;31579;52.354;16.974;2023-04-10T01:36:59;450.7;;;-146.1;100.0
45864;BME280;31579;52.354;16.974;2023-04-10T01:38:01;430.2;;;-146.1;100.0
45864;BME280;31579;52.354;16.974;2023-04-10T01:39:05;409.4;;;-146.1;100.0
45864;BME280;31579;52.354;16.974;2023-04-10T01:40:10;391.0;;;-146.1;100.0
45864;BME280;31579;52.354;16.974;2023-04-10T01:41:13;376.3;;;-146.1;100.0
45864;BME280;31579;52.354;16.974;2023-04-10T01:42:18;364.7;;;-146.1;100.0
45864;BME280;31579;52.354;16.974;2023-04-10T01:43:21;355.5;;;-146.1;100.0
45864;BME280;31579;52.354;16.974;2023-04-10T01:44:28;347.5;;;-146.1;100.0
45864;BME280;31579;52.354;16.974;2023-04-10T01:45:29;340.5;;;-146.1;100.0
45864;BME280;31579;52.354;16.974;2023-04-10T01:46:33;334.4;;;-146.1;100.0
45864;BME280;31579;52.354;16.974;2023-04-10T01:47:38;329.1;;;-146.1;100.0
45864;BME280;31579;52.354;16.974;2023-04-10T01:48:42;324.0;;;-146.1;100.0
45864;BME280;31579;52.354;16.974;2023-04-10T01:49:46;319.4;;;-146.1;100.0
45864;BME280;31579;52.354;16.974;2023-04-10T01:50:49;314.9;;;-146.1;100.0
45864;BME280;31579;52.354;16.974;2023-04-10T01:51:54;311.1;;;-146.1;100.0
45864;BME280;31579;52.354;16.974;2023-04-10T01:52:57;385.7;;;-146.1;100.0
45864;BME280;31579;52.354;16.974;2023-04-10T01:54:02;350.2;;;-146.1;100.0
45864;BME280;31579;52.354;16.974;2023-04-10T01:55:07;339.3;;;-146.1;100.0
45864;BME280;31579;52.354;16.974;2023-04-10T01:56:11;327.6;;;-146.1;100.0
45864;BME280;31579;52.354;16.974;2023-04-10T01:57:15;317.6;;;-146.1;100.0
45864;BME280;31579;52.354;16.974;2023-04-10T01:58:18;310.1;;;-146.1;100.0
45864;BME280;31579;52.354;16.974;2023-04-10T01:59:22;303.5;;;-146.1;100.0
45864;BME280;31579;52.354;16.974;2023-04-10T02:00:27;298.4;;;-146.1;100.0
45864;BME280;31579;52.354;16.974;2023-04-10T02:01:31;293.7;;;-146.1;100.0
45864;BME280;31579;52.354;16.974;2023-04-10T02:02:35;292.3;;;-146.1;100.0
45864;BME280;31579;52.354;16.974;2023-04-10T02:03:39;288.7;;;-146.1;100.0
45864;BME280;31579;52.354;16.974;2023-04-10T02:04:43;284.8;;;-146.1;100.0
45864;BME280;31579;52.354;16.974;2023-04-10T02:06:59;281.5;;;-146.1;100.0
45864;BME280;31579;52.354;16.974;2023-04-10T02:09:04;278.1;;;-146.1;100.0
45864;BME280;31579;52.354;16.974;2023-04-10T02:11:14;351.4;;;-146.1;100.0
45864;BME280;31579;52.354;16.974;2023-04-10T02:12:22;419.4;;;-146.1;100.0
45864;BME280;31579;52.354;16.974;2023-04-10T02:13:25;294.9;;;-146.1;100.0
45864;BME280;31579;52.354;16.974;2023-04-10T02:14:30;260.0;;;-146.1;100.0
45864;BME280;31579;52.354;16.974;2023-04-10T02:15:33;248.2;;;-146.1;100.0
45864;BME280;31579;52.354;16.974;2023-04-10T02:16:37;245.3;;;-146.1;100.0
45864;BME280;31579;52.354;16.974;2023-04-10T02:17:41;243.7;;;-146.1;100.0
45864;BME280;31579;52.354;16.974;2023-04-10T02:18:45;242.9;;;-146.1;100.0
45864;BME280;31579;52.354;16.974;2023-04-10T02:19:49;243.1;;;-146.1;100.0
45864;BME280;31579;52.354;16.974;2023-04-10T02:20:54;241.7;;;-146.1;100.0
45864;BME280;31579;52.354;16.974;2023-04-10T02:21:58;243.4;;;-146.1;100.0
45864;BME280;31579;52.354;16.974;2023-04-10T02:23:00;342.8;;;-146.1;100.0
45864;BME280;31579;52.354;16.974;2023-04-10T02:24:05;286.1;;;-146.1;100.0
45864;BME280;31579;52.354;16.974;2023-04-10T02:25:09;272.6;;;-146.1;100.0
45864;BME280;31579;52.354;16.974;2023-04-10T02:26:13;265.4;;;-146.1;100.0
45864;BME280;31579;52.354;16.974;2023-04-10T02:28:21;256.4;;;-146.1;100.0
45864;BME280;31579;52.354;16.974;2023-04-10T02:29:25;254.4;;;-146.1;100.0
45864;BME280;31579;52.354;16.974;2023-04-10T02:30:29;252.6;;;-146.1;100.0
45864;BME280;31579;52.354;16.974;2023-04-10T02:31:33;250.9;;;-146.1;100.0
45864;BME280;31579;52.354;16.974;2023-04-10T02:32:37;249.9;;;-146.1;100.0
45864;BME280;31579;52.354;16.974;2023-04-10T02:33:41;249.7;;;-146.1;100.0
45864;BME280;31579;52.354;16.974;2023-04-10T02:34:45;249.3;;;-146.1;100.0
45864;BME280;31579;52.354;16.974;2023-04-10T02:35:49;248.4;;;-146.1;100.0
45864;BME280;31579;52.354;16.974;2023-04-10T02:36:53;248.4;;;-146.1;100.0
45864;BME280;31579;52.354;16.974;2023-04-10T02:37:57;247.6;;;-146.1;100.0
45864;BME280;31579;52.354;16.974;2023-04-10T02:39:01;247.4;;;-146.1;100.0
45864;BME280;31579;52.354;16.974;2023-04-10T02:40:05;246.2;;;-146.1;100.0
45864;BME280;31579;52.354;16.974;2023-04-10T02:41:09;246.5;;;-146.1;100.0
45864;BME280;31579;52.354;16.974;2023-04-10T02:42:13;246.3;;;-146.1;100.0
45864;BME280;31579;52.354;16.974;2023-04-10T02:43:15;333.9;;;-146.1;100.0
45864;BME280;31579;52.354;16.974;2023-04-10T02:44:25;288.6;;;-146.1;100.0
45864;BME280;31579;52.354;16.974;2023-04-10T02:45:29;250.3;;;-146.1;100.0
45864;BME280;31579;52.354;16.974;2023-04-10T02:46:33;245.7;;;-146.1;100.0
45864;BME280;31579;52.354;16.974;2023-04-10T02:47:37;245.5;;;-146.1;100.0
45864;BME280;31579;52.354;16.974;2023-04-10T02:48:41;245.4;;;-146.1;100.0
45864;BME280;31579;52.354;16.974;2023-04-10T02:49:45;244.8;;;-146.1;100.0
45864;BME280;31579;52.354;16.974;2023-04-10T02:50:54;245.9;;;-146.1;100.0
45864;BME280;31579;52.354;16.974;2023-04-10T02:51:54;244.0;;;-146.1;100.0
45864;BME280;31579;52.354;16.974;2023-04-10T02:52:58;245.6;;;-146.1;100.0
45864;BME280;31579;52.354;16.974;2023-04-10T02:54:08;323.2;;;-146.1;100.0
45864;BME280;31579;52.354;16.974;2023-04-10T02:55:12;265.1;;;-146.1;100.0
45864;BME280;31579;52.354;16.974;2023-04-10T02:56:16;250.6;;;-146.1;100.0
45864;BME280;31579;52.354;16.974;2023-04-10T02:57:20;243.7;;;-146.1;100.0
45864;BME280;31579;52.354;16.974;2023-04-10T02:58:24;240.9;;;-146.1;100.0
45864;BME280;31579;52.354;16.974;2023-04-10T02:59:28;238.1;;;-146.1;100.0
45864;BME280;31579;52.354;16.974;2023-04-10T03:00:32;237.0;;;-146.1;100.0
45864;BME280;31579;52.354;16.974;2023-04-10T03:01:36;235.7;;;-146.1;100.0
45864;BME280;31579;52.354;16.974;2023-04-10T03:02:40;234.0;;;-146.1;100.0
45864;BME280;31579;52.354;16.974;2023-04-10T03:03:44;232.5;;;-146.1;100.0
45864;BME280;31579;52.354;16.974;2023-04-10T03:04:48;231.1;;;-146.1;100.0
45864;BME280;31579;52.354;16.974;2023-04-10T03:05:52;230.4;;;-146.1;100.0
45864;BME280;31579;52.354;16.974;2023-04-10T03:06:57;226.7;;;-146.1;100.0
45864;BME280;31579;52.354;16.974;2023-04-10T03:08:08;361.1;;;-146.1;100.0
45864;BME280;31579;52.354;16.974;2023-04-10T03:09:12;261.5;;;-146.1;100.0
45864;BME280;31579;52.354;16.974;2023-04-10T03:10:16;231.1;;;-146.1;100.0
45864;BME280;31579;52.354;16.974;2023-04-10T03:11:20;218.1;;;-146.1;100.0
45864;BME280;31579;52.354;16.974;2023-04-10T03:12:24;211.2;;;-146.1;100.0
45864;BME280;31579;52.354;16.974;2023-04-10T03:13:28;206.2;;;-146.1;100.0
45864;BME280;31579;52.354;16.974;2023-04-10T03:14:31;166.4;;;-146.1;100.0
45864;BME280;31579;52.354;16.974;2023-04-10T03:15:35;188.5;;;-146.1;100.0
45864;BME280;31579;52.354;16.974;2023-04-10T03:16:39;196.5;;;-146.1;100.0
45864;BME280;31579;52.354;16.974;2023-04-10T03:17:43;198.7;;;-146.1;100.0
45864;BME280;31579;52.354;16.974;2023-04-10T03:18:47;198.5;;;-146.1;100.0
45864;BME280;31579;52.354;16.974;2023-04-10T03:19:51;197.8;;;-146.1;100.0
45864;BME280;31579;52.354;16.974;2023-04-10T03:20:55;197.0;;;-146.1;100.0
45864;BME280;31579;52.354;16.974;2023-04-10T03:21:59;197.4;;;-146.1;100.0
45864;BME280;31579;52.354;16.974;2023-04-10T03:23:04;199.4;;;-146.1;100.0
45864;BME280;31579;52.354;16.974;2023-04-10T03:24:08;194.1;;;-146.1;100.0
45864;BME280;31579;52.354;16.974;2023-04-10T03:25:12;192.9;;;-146.1;100.0
45864;BME280;31579;52.354;16.974;2023-04-10T03:26:16;191.7;;;-146.1;100.0
45864;BME280;31579;52.354;16.974;2023-04-10T03:27:20;190.6;;;-146.1;100.0
45864;BME280;31579;52.354;16.974;2023-04-10T03:28:24;188.6;;;-146.1;100.0
45864;BME280;31579;52.354;16.974;2023-04-10T03:29:28;187.8;;;-146.1;100.0
45864;BME280;31579;52.354;16.974;2023-04-10T03:30:32;186.6;;;-146.1;100.0
45864;BME280;31579;52.354;16.974;2023-04-10T03:31:36;185.3;;;-146.1;100.0
45864;BME280;31579;52.354;16.974;2023-04-10T03:32:40;183.4;;;-146.1;100.0
45864;BME280;31579;52.354;16.974;2023-04-10T03:33:44;182.2;;;-146.1;100.0
45864;BME280;31579;52.354;16.974;2023-04-10T03:34:48;163.6;;;-146.1;100.0
45864;BME280;31579;52.354;16.974;2023-04-10T03:35:52;162.9;;;-146.1;100.0
45864;BME280;31579;52.354;16.974;2023-04-10T03:36:56;162.3;;;-146.1;100.0
45864;BME280;31579;52.354;16.974;2023-04-10T03:38:00;161.1;;;-146.1;100.0
45864;BME280;31579;52.354;16.974;2023-04-10T03:39:03;127.3;;;-146.1;100.0
45864;BME280;31579;52.354;16.974;2023-04-10T03:40:07;148.3;;;-146.1;100.0
45864;BME280;31579;52.354;16.974;2023-04-10T03:41:11;158.8;;;-146.1;100.0
45864;BME280;31579;52.354;16.974;2023-04-10T03:42:15;162.3;;;-146.1;100.0
45864;BME280;31579;52.354;16.974;2023-04-10T03:43:19;162.7;;;-146.1;100.0
45864;BME280;31579;52.354;16.974;2023-04-10T03:44:23;161.8;;;-146.1;100.0
45864;BME280;31579;52.354;16.974;2023-04-10T03:45:27;160.3;;;-146.1;100.0
45864;BME280;31579;52.354;16.974;2023-04-10T03:46:31;158.9;;;-146.1;100.0
45864;BME280;31579;52.354;16.974;2023-04-10T03:47:35;156.8;;;-146.1;100.0
45864;BME280;31579;52.354;16.974;2023-04-10T03:48:39;154.6;;;-146.1;100.0
45864;BME280;31579;52.354;16.974;2023-04-10T03:49:43;152.2;;;-146.1;100.0
45864;BME280;31579;52.354;16.974;2023-04-10T03:50:47;149.9;;;-146.1;100.0
45864;BME280;31579;52.354;16.974;2023-04-10T03:51:51;147.2;;;-146.1;100.0
45864;BME280;31579;52.354;16.974;2023-04-10T03:52:55;145.2;;;-146.1;100.0
45864;BME280;31579;52.354;16.974;2023-04-10T03:53:59;142.7;;;-146.1;100.0
45864;BME280;31579;52.354;16.974;2023-04-10T03:55:04;139.0;;;-146.1;100.0
45864;BME280;31579;52.354;16.974;2023-04-10T03:56:07;110.1;;;-146.1;100.0
45864;BME280;31579;52.354;16.974;2023-04-10T03:57:11;127.5;;;-146.1;100.0
45864;BME280;31579;52.354;16.974;2023-04-10T03:58:15;134.8;;;-146.1;100.0
45864;BME280;31579;52.354;16.974;2023-04-10T03:59:19;136.6;;;-146.1;100.0
45864;BME280;31579;52.354;16.974;2023-04-10T04:00:23;136.7;;;-146.1;100.0
45864;BME280;31579;52.354;16.974;2023-04-10T04:01:27;135.8;;;-146.1;100.0
45864;BME280;31579;52.354;16.974;2023-04-10T04:02:31;134.8;;;-146.1;100.0
45864;BME280;31579;52.354;16.974;2023-04-10T04:03:35;134.2;;;-146.1;100.0
45864;BME280;31579;52.354;16.974;2023-04-10T04:04:39;132.3;;;-146.1;100.0
45864;BME280;31579;52.354;16.974;2023-04-10T04:05:43;132.0;;;-146.1;100.0
45864;BME280;31579;52.354;16.974;2023-04-10T04:06:48;130.5;;;-146.1;100.0
45864;BME280;31579;52.354;16.974;2023-04-10T04:07:52;131.3;;;-146.1;100.0
45864;BME280;31579;52.354;16.974;2023-04-10T04:08:56;131.5;;;-146.1;100.0
45864;BME280;31579;52.354;16.974;2023-04-10T04:10:07;233.2;;;-146.1;100.0
45864;BME280;31579;52.354;16.974;2023-04-10T04:11:11;150.7;;;-146.1;100.0
45864;BME280;31579;52.354;16.974;2023-04-10T04:12:15;131.1;;;-146.1;100.0
45864;BME280;31579;52.354;16.974;2023-04-10T04:13:19;122.3;;;-146.1;100.0
45864;BME280;31579;52.354;16.974;2023-04-10T04:14:23;119.0;;;-146.1;100.0
45864;BME280;31579;52.354;16.974;2023-04-10T04:15:27;116.9;;;-146.1;100.0
45864;BME280;31579;52.354;16.974;2023-04-10T04:16:30;93.2;;;-146.1;100.0
45864;BME280;31579;52.354;16.974;2023-04-10T04:17:34;108.0;;;-146.1;100.0
45864;BME280;31579;52.354;16.974;2023-04-10T04:18:38;115.3;;;-146.1;100.0
45864;BME280;31579;52.354;16.974;2023-04-10T04:19:42;116.7;;;-146.1;100.0
45864;BME280;31579;52.354;16.974;2023-04-10T04:20:46;116.5;;;-146.1;100.0
45864;BME280;31579;52.354;16.974;2023-04-10T04:21:50;116.2;;;-146.1;100.0
45864;BME280;31579;52.354;16.974;2023-04-10T04:22:54;115.3;;;-146.1;100.0
45864;BME280;31579;52.354;16.974;2023-04-10T04:23:58;114.9;;;-146.1;100.0
45864;BME280;31579;52.354;16.974;2023-04-10T04:25:00;69.0;;;-146.1;100.0
45864;BME280;31579;52.354;16.974;2023-04-10T04:26:05;98.6;;;-146.1;100.0
45864;BME280;31579;52.354;16.974;2023-04-10T04:27:09;118.8;;;-146.1;100.0
45864;BME280;31579;52.354;16.974;2023-04-10T04:28:13;126.3;;;-146.1;100.0
45864;BME280;31579;52.354;16.974;2023-04-10T04:29:17;129.2;;;-146.1;100.0
45864;BME280;31579;52.354;16.974;2023-04-10T04:30:21;131.0;;;-146.1;100.0
45864;BME280;31579;52.354;16.974;2023-04-10T04:31:26;131.4;;;-146.1;100.0
45864;BME280;31579;52.354;16.974;2023-04-10T04:32:30;133.7;;;-146.1;100.0
45864;BME280;31579;52.354;16.974;2023-04-10T04:33:34;134.9;;;-146.1;100.0
45864;BME280;31579;52.354;16.974;2023-04-10T04:34:39;135.0;;;-146.1;100.0
45864;BME280;31579;52.354;16.974;2023-04-10T04:35:43;137.4;;;-146.1;100.0
45864;BME280;31579;52.354;16.974;2023-04-10T04:36:47;139.3;;;-146.1;100.0
45864;BME280;31579;52.354;16.974;2023-04-10T04:37:51;141.6;;;-146.1;100.0
45864;BME280;31579;52.354;16.974;2023-04-10T04:38:55;143.8;;;-146.1;100.0
45864;BME280;31579;52.354;16.974;2023-04-10T04:40:00;145.7;;;-146.1;100.0
45864;BME280;31579;52.354;16.974;2023-04-10T04:41:03;147.5;;;-146.1;100.0
45864;BME280;31579;52.354;16.974;2023-04-10T04:42:07;149.9;;;-146.1;100.0
45864;BME280;31579;52.354;16.974;2023-04-10T04:43:11;151.8;;;-146.1;100.0
45864;BME280;31579;52.354;16.974;2023-04-10T04:44:16;154.6;;;-146.1;100.0
45864;BME280;31579;52.354;16.974;2023-04-10T04:45:19;157.8;;;-146.1;100.0
45864;BME280;31579;52.354;16.974;2023-04-10T04:46:23;160.4;;;-146.1;100.0
45864;BME280;31579;52.354;16.974;2023-04-10T04:47:27;163.2;;;-146.1;100.0
45864;BME280;31579;52.354;16.974;2023-04-10T04:48:32;166.5;;;-146.1;100.0
45864;BME280;31579;52.354;16.974;2023-04-10T04:49:35;170.9;;;-146.1;100.0
45864;BME280;31579;52.354;16.974;2023-04-10T04:50:39;174.9;;;-146.1;100.0
45864;BME280;31579;52.354;16.974;2023-04-10T04:51:43;179.1;;;-146.1;100.0
45864;BME280;31579;52.354;16.974;2023-04-10T04:52:47;184.1;;;-146.1;100.0
45864;BME280;31579;52.354;16.974;2023-04-10T04:53:51;189.1;;;-146.1;100.0
45864;BME280;31579;52.354;16.974;2023-04-10T04:54:55;194.4;;;-146.1;100.0
45864;BME280;31579;52.354;16.974;2023-04-10T04:56:00;200.0;;;-146.1;100.0
45864;BME280;31579;52.354;16.974;2023-04-10T04:57:05;207.3;;;-146.1;100.0
45864;BME280;31579;52.354;16.974;2023-04-10T04:58:09;214.7;;;-146.1;100.0
45864;BME280;31579;52.354;16.974;2023-04-10T04:59:13;220.8;;;-146.1;100.0
45864;BME280;31579;52.354;16.974;2023-04-10T05:00:17;227.0;;;-146.1;100.0
45864;BME280;31579;52.354;16.974;2023-04-10T05:01:21;234.0;;;-146.1;100.0
45864;BME280;31579;52.354;16.974;2023-04-10T05:02:25;241.2;;;-146.1;100.0
45864;BME280;31579;52.354;16.974;2023-04-10T05:03:29;248.2;;;-146.1;100.0
45864;BME280;31579;52.354;16.974;2023-04-10T05:04:33;255.2;;;-146.1;100.0
45864;BME280;31579;52.354;16.974;2023-04-10T05:05:37;262.5;;;-146.1;100.0
45864;BME280;31579;52.354;16.974;2023-04-10T05:06:41;268.9;;;-146.1;100.0
45864;BME280;31579;52.354;16.974;2023-04-10T05:07:45;274.9;;;-146.1;100.0
45864;BME280;31579;52.354;16.974;2023-04-10T05:08:49;281.8;;;-146.1;100.0
45864;BME280;31579;52.354;16.974;2023-04-10T05:09:53;288.0;;;-146.1;100.0
45864;BME280;31579;52.354;16.974;2023-04-10T05:10:57;294.9;;;-146.1;100.0
45864;BME280;31579;52.354;16.974;2023-04-10T05:12:01;302.5;;;-146.1;100.0
45864;BME280;31579;52.354;16.974;2023-04-10T05:13:05;309.5;;;-146.1;100.0
45864;BME280;31579;52.354;16.974;2023-04-10T05:14:09;315.9;;;-146.1;100.0
45864;BME280;31579;52.354;16.974;2023-04-10T05:15:14;325.5;;;-146.1;100.0
45864;BME280;31579;52.354;16.974;2023-04-10T05:16:18;330.6;;;-146.1;100.0
45864;BME280;31579;52.354;16.974;2023-04-10T05:17:22;335.7;;;-146.1;100.0
45864;BME280;31579;52.354;16.974;2023-04-10T05:18:26;341.9;;;-146.1;100.0
45864;BME280;31579;52.354;16.974;2023-04-10T05:19:30;345.8;;;-146.1;100.0
45864;BME280;31579;52.354;16.974;2023-04-10T05:20:34;352.2;;;-146.1;100.0
45864;BME280;31579;52.354;16.974;2023-04-10T05:21:38;359.1;;;-146.1;100.0
45864;BME280;31579;52.354;16.974;2023-04-10T05:22:42;365.0;;;-146.1;100.0
45864;BME280;31579;52.354;16.974;2023-04-10T05:23:46;370.6;;;-146.1;100.0
45864;BME280;31579;52.354;16.974;2023-04-10T05:24:50;376.5;;;-146.1;100.0
45864;BME280;31579;52.354;16.974;2023-04-10T05:25:54;382.6;;;-146.1;100.0
45864;BME280;31579;52.354;16.974;2023-04-10T05:26:58;389.2;;;-146.1;100.0
45864;BME280;31579;52.354;16.974;2023-04-10T05:28:06;423.9;;;-146.1;100.0
45864;BME280;31579;52.354;16.974;2023-04-10T05:29:10;404.4;;;-146.1;100.0
45864;BME280;31579;52.354;16.974;2023-04-10T05:30:14;410.2;;;-146.1;100.0
45864;BME280;31579;52.354;16.974;2023-04-10T05:31:18;416.0;;;-146.1;100.0
45864;BME280;31579;52.354;16.974;2023-04-10T05:32:22;421.8;;;-146.1;100.0
45864;BME280;31579;52.354;16.974;2023-04-10T05:33:26;426.6;;;-146.1;100.0
45864;BME280;31579;52.354;16.974;2023-04-10T05:34:30;431.0;;;-146.1;100.0
45864;BME280;31579;52.354;16.974;2023-04-10T05:35:34;434.8;;;-146.1;100.0
45864;BME280;31579;52.354;16.974;2023-04-10T05:36:38;438.6;;;-146.1;100.0
45864;BME280;31579;52.354;16.974;2023-04-10T05:37:43;444.4;;;-146.1;100.0
45864;BME280;31579;52.354;16.974;2023-04-10T05:38:47;447.2;;;-146.1;100.0
45864;BME280;31579;52.354;16.974;2023-04-10T05:39:51;449.7;;;-146.1;100.0
45864;BME280;31579;52.354;16.974;2023-04-10T05:40:55;451.8;;;-146.1;100.0
45864;BME280;31579;52.354;16.974;2023-04-10T05:41:59;454.3;;;-146.1;100.0
45864;BME280;31579;52.354;16.974;2023-04-10T05:43:03;477.1;;;-146.1;100.0
45864;BME280;31579;52.354;16.974;2023-04-10T05:44:07;472.3;;;-146.1;100.0
45864;BME280;31579;52.354;16.974;2023-04-10T05:45:11;470.4;;;-146.1;100.0
45864;BME280;31579;52.354;16.974;2023-04-10T05:46:15;469.8;;;-146.1;100.0
45864;BME280;31579;52.354;16.974;2023-04-10T05:47:19;469.5;;;-146.1;100.0
45864;BME280;31579;52.354;16.974;2023-04-10T05:48:23;470.6;;;-146.1;100.0
45864;BME280;31579;52.354;16.974;2023-04-10T05:49:27;471.7;;;-146.1;100.0
45864;BME280;31579;52.354;16.974;2023-04-10T05:50:31;472.4;;;-146.1;100.0
45864;BME280;31579;52.354;16.974;2023-04-10T05:51:35;473.8;;;-146.1;100.0
45864;BME280;31579;52.354;16.974;2023-04-10T05:52:39;474.1;;;-146.1;100.0
45864;BME280;31579;52.354;16.974;2023-04-10T05:53:43;474.1;;;-146.1;100.0
45864;BME280;31579;52.354;16.974;2023-04-10T05:54:47;474.9;;;-146.1;100.0
45864;BME280;31579;52.354;16.974;2023-04-10T05:55:51;477.0;;;-146.1;100.0
45864;BME280;31579;52.354;16.974;2023-04-10T05:56:55;477.9;;;-146.1;100.0
45864;BME280;31579;52.354;16.974;2023-04-10T05:58:07;365.4;;;-146.1;100.0
45864;BME280;31579;52.354;16.974;2023-04-10T05:59:11;401.3;;;-146.1;100.0
45864;BME280;31579;52.354;16.974;2023-04-10T06:00:16;436.5;;;-146.1;100.0
45864;BME280;31579;52.354;16.974;2023-04-10T06:01:19;453.2;;;-146.1;100.0